Language: 


Des rapports , des résumés tant et plus, au choix de chacun....


Données statistiques de la station
Quotidien Rapport Septembre 29, 2017 Unités:  Métrique    Anglais   les deux
« Précédent Jour
Suivant Jour »
Quotidien Hebdomadaire Mensuel Annuel Actuel
  Haut: Bas: Moyen:
Température: 24.4 °C 0.0 °C 17.9 °C
Pt de rosée: 19.0 °C 14.0 °C 16.3 °C
Humidité: 98 % 0 % 90 %
Vitesse du vent: 17.2 km/h 0.0 km/h 4.7 km/h
Rafales: 17.7 km/h - -
Vent:- - SW
Pression: 1020.9 hPa 0.0 hPa -
Précipitation: 0.0 mm    
Historical Graphs
 
 
Données statistiques pour Septembre 29, 2017
Heure Température Point de rosée Pression Vent Vitesse du vent Refales Humidité Pluie (taux horaire)
00:04 14.7 °C 15.0 °C 1020.9 hPa Calm     98 % 0.0 mm
00:09 14.6 °C 15.0 °C 1020.9 hPa Calm     98 % 0.0 mm
00:14 14.5 °C 15.0 °C 1020.9 hPa Calm     98 % 0.0 mm
00:19 14.5 °C 15.0 °C 1020.9 hPa Calm     98 % 0.0 mm
00:24 14.4 °C 14.0 °C 1020.9 hPa Calm     98 % 0.0 mm
00:29 14.3 °C 14.0 °C 1020.9 hPa Calm     98 % 0.0 mm
00:34 14.3 °C 14.0 °C 1020.9 hPa Calm     98 % 0.0 mm
00:40 14.2 °C 14.0 °C 1020.9 hPa Calm     98 % 0.0 mm
00:45 14.2 °C 14.0 °C 1020.9 hPa Calm     98 % 0.0 mm
00:50 14.2 °C 14.0 °C 1020.9 hPa Calm     98 % 0.0 mm
00:55 14.2 °C 14.0 °C 1020.9 hPa Calm     98 % 0.0 mm
01:00 14.2 °C 14.0 °C 1020.9 hPa Calm     98 % 0.0 mm
01:05 14.2 °C 14.0 °C 1020.9 hPa Calm     98 % 0.0 mm
01:10 14.1 °C 14.0 °C 1020.9 hPa Calm     98 % 0.0 mm
01:15 14.1 °C 14.0 °C 1019.9 hPa Calm     98 % 0.0 mm
01:20 14.1 °C 14.0 °C 1019.9 hPa Calm     98 % 0.0 mm
01:25 14.0 °C 14.0 °C 1019.9 hPa Calm     98 % 0.0 mm
01:30 14.0 °C 14.0 °C 1020.9 hPa Calm     98 % 0.0 mm
01:35 14.0 °C 14.0 °C 1020.9 hPa Calm     98 % 0.0 mm
01:40 14.0 °C 14.0 °C 1020.9 hPa Calm     98 % 0.0 mm
01:45 13.9 °C 14.0 °C 1020.9 hPa Calm     98 % 0.0 mm
01:50 13.9 °C 14.0 °C 1020.9 hPa Calm     98 % 0.0 mm
01:55 13.9 °C 14.0 °C 1020.9 hPa Calm     98 % 0.0 mm
02:00 13.8 °C 14.0 °C 1019.9 hPa Calm     98 % 0.0 mm
02:05 13.8 °C 14.0 °C 1019.9 hPa Calm     98 % 0.0 mm
02:10 13.7 °C 14.0 °C 1019.9 hPa Calm     98 % 0.0 mm
02:15 13.7 °C 14.0 °C 1019.9 hPa Calm     98 % 0.0 mm
02:20 13.7 °C 14.0 °C 1019.9 hPa Calm     98 % 0.0 mm
02:26 13.8 °C 14.0 °C 1019.9 hPa Calm     98 % 0.0 mm
02:31 14.0 °C 14.0 °C 1019.9 hPa Calm     98 % 0.0 mm
02:36 14.0 °C 14.0 °C 1019.9 hPa Calm     98 % 0.0 mm
02:41 14.2 °C 14.0 °C 1019.9 hPa Calm     98 % 0.0 mm
02:46 14.2 °C 14.0 °C 1019.9 hPa Calm     98 % 0.0 mm
02:51 14.3 °C 14.0 °C 1019.9 hPa Calm     98 % 0.0 mm
02:56 14.3 °C 14.0 °C 1019.9 hPa Calm     98 % 0.0 mm
03:01 0.0 °C 14.0 °C 0.0 hPa Calm     0 % 0.0 mm
03:06 14.2 °C 14.0 °C 1019.9 hPa Calm     98 % 0.0 mm
03:12 14.2 °C 14.0 °C 1019.9 hPa Calm     98 % 0.0 mm
03:17 14.2 °C 14.0 °C 1019.9 hPa Calm     98 % 0.0 mm
03:22 14.2 °C 14.0 °C 1019.9 hPa Calm     98 % 0.0 mm
03:27 14.2 °C 14.0 °C 1019.9 hPa Calm     98 % 0.0 mm
03:32 14.2 °C 14.0 °C 1019.9 hPa Calm     98 % 0.0 mm
03:37 14.2 °C 14.0 °C 1019.9 hPa Calm     98 % 0.0 mm
03:42 14.0 °C 14.0 °C 1019.9 hPa Calm     98 % 0.0 mm
03:47 14.0 °C 14.0 °C 1018.8 hPa Calm     98 % 0.0 mm
03:52 14.0 °C 14.0 °C 1018.8 hPa Calm     98 % 0.0 mm
04:00 14.0 °C 14.0 °C 1018.8 hPa Calm     98 % 0.0 mm
04:05 14.0 °C 14.0 °C 1018.8 hPa Calm     98 % 0.0 mm
04:10 14.3 °C 14.0 °C 1018.8 hPa Calm     98 % 0.0 mm
04:15 14.4 °C 14.0 °C 1018.8 hPa Calm     98 % 0.0 mm
04:20 14.4 °C 14.0 °C 1018.8 hPa Calm     98 % 0.0 mm
04:25 14.5 °C 15.0 °C 1018.8 hPa Calm     98 % 0.0 mm
04:30 14.5 °C 15.0 °C 1018.8 hPa Calm     98 % 0.0 mm
04:35 14.6 °C 15.0 °C 1018.8 hPa Calm     98 % 0.0 mm
04:40 14.7 °C 15.0 °C 1018.8 hPa Calm     98 % 0.0 mm
04:45 14.7 °C 15.0 °C 1018.8 hPa Calm     98 % 0.0 mm
04:50 14.8 °C 15.0 °C 1018.8 hPa Calm     98 % 0.0 mm
04:55 14.8 °C 15.0 °C 1018.8 hPa Calm     98 % 0.0 mm
04:56 14.8 °C 15.0 °C 1018.8 hPa Calm     98 % 0.0 mm
05:01 14.8 °C 15.0 °C 1018.2 hPa Calm     98 % 0.0 mm
05:11 14.9 °C 15.0 °C 1018.2 hPa Calm     98 % 0.0 mm
05:20 14.9 °C 15.0 °C 1018.8 hPa Calm     98 % 0.0 mm
05:25 14.9 °C 15.0 °C 1018.8 hPa Calm     98 % 0.0 mm
05:30 15.0 °C 15.0 °C 1019.9 hPa Calm     98 % 0.0 mm
05:35 15.0 °C 15.0 °C 1019.9 hPa Calm   6.1 km/h 98 % 0.0 mm
05:40 15.0 °C 15.0 °C 1019.9 hPa South 4.7 km/h 6.1 km/h 98 % 0.0 mm
05:42 15.0 °C 15.0 °C 1019.9 hPa South 4.7 km/h 6.1 km/h 98 % 0.0 mm
05:47 15.0 °C 15.0 °C 1018.8 hPa South 4.7 km/h 4.7 km/h 98 % 0.0 mm
05:52 15.0 °C 15.0 °C 1018.8 hPa South 4.7 km/h 4.7 km/h 98 % 0.0 mm
05:57 15.0 °C 15.0 °C 1018.8 hPa South 4.7 km/h 4.7 km/h 98 % 0.0 mm
06:02 15.0 °C 15.0 °C 1018.8 hPa Calm     98 % 0.0 mm
06:07 15.0 °C 15.0 °C 1018.8 hPa Calm     98 % 0.0 mm
06:12 14.9 °C 15.0 °C 1018.8 hPa Calm     98 % 0.0 mm
06:17 15.0 °C 15.0 °C 1018.8 hPa Calm     98 % 0.0 mm
06:23 15.0 °C 15.0 °C 1018.8 hPa Calm     98 % 0.0 mm
06:28 14.9 °C 15.0 °C 1018.8 hPa Calm     98 % 0.0 mm
06:33 15.0 °C 15.0 °C 1018.8 hPa Calm     98 % 0.0 mm
06:38 15.1 °C 15.0 °C 1018.8 hPa Calm     98 % 0.0 mm
06:43 15.1 °C 15.0 °C 1018.8 hPa Calm     98 % 0.0 mm
06:48 15.1 °C 15.0 °C 1018.8 hPa Calm     98 % 0.0 mm
06:53 15.1 °C 15.0 °C 1018.8 hPa Calm     98 % 0.0 mm
06:58 15.1 °C 15.0 °C 1018.8 hPa Calm     98 % 0.0 mm
07:08 15.2 °C 15.0 °C 1018.8 hPa Calm     98 % 0.0 mm
07:13 15.2 °C 15.0 °C 1018.8 hPa Calm     98 % 0.0 mm
07:18 15.2 °C 15.0 °C 1018.8 hPa Calm     98 % 0.0 mm
07:23 15.2 °C 15.0 °C 1018.8 hPa Calm     98 % 0.0 mm
07:28 15.1 °C 15.0 °C 1018.8 hPa Calm     98 % 0.0 mm
07:33 15.1 °C 15.0 °C 1018.8 hPa Calm     98 % 0.0 mm
07:38 15.2 °C 15.0 °C 1018.8 hPa Calm     98 % 0.0 mm
07:43 15.2 °C 15.0 °C 1018.8 hPa Calm     98 % 0.0 mm
07:48 15.2 °C 15.0 °C 1018.8 hPa Calm     98 % 0.0 mm
07:53 15.3 °C 15.0 °C 1018.8 hPa Calm     98 % 0.0 mm
07:58 15.3 °C 15.0 °C 1018.8 hPa Calm     98 % 0.0 mm
08:03 15.4 °C 15.0 °C 1018.8 hPa Calm     98 % 0.0 mm
08:05 15.4 °C 15.0 °C 1018.8 hPa Calm     98 % 0.0 mm
08:10 15.5 °C 16.0 °C 1018.8 hPa Calm     98 % 0.0 mm
08:15 15.5 °C 16.0 °C 1018.8 hPa Calm     98 % 0.0 mm
08:20 15.6 °C 16.0 °C 1018.8 hPa Calm     98 % 0.0 mm
08:25 15.6 °C 16.0 °C 1018.8 hPa Calm     98 % 0.0 mm
08:30 15.7 °C 16.0 °C 1018.2 hPa Calm     98 % 0.0 mm
08:35 15.8 °C 16.0 °C 1018.2 hPa Calm     98 % 0.0 mm
08:41 15.9 °C 16.0 °C 1018.2 hPa Calm     98 % 0.0 mm
08:46 16.0 °C 16.0 °C 1018.2 hPa Calm     98 % 0.0 mm
08:51 16.1 °C 16.0 °C 1018.2 hPa Calm     98 % 0.0 mm
08:56 16.2 °C 16.0 °C 1018.2 hPa Calm     98 % 0.0 mm
09:01 16.3 °C 16.0 °C 1018.2 hPa Calm     98 % 0.0 mm
09:06 16.3 °C 16.0 °C 1018.2 hPa Calm     98 % 0.0 mm
09:11 16.4 °C 16.0 °C 1018.2 hPa Calm     98 % 0.0 mm
09:16 16.5 °C 17.0 °C 1018.2 hPa Calm     98 % 0.0 mm
09:21 16.5 °C 17.0 °C 1018.2 hPa Calm     98 % 0.0 mm
09:26 16.5 °C 17.0 °C 1018.2 hPa Calm     98 % 0.0 mm
09:31 16.9 °C 17.0 °C 1018.2 hPa Calm     98 % 0.0 mm
09:36 17.2 °C 17.0 °C 1018.2 hPa Calm     97 % 0.0 mm
09:41 17.4 °C 17.0 °C 1018.2 hPa Calm     97 % 0.0 mm
09:46 17.8 °C 17.0 °C 1018.2 hPa SE 3.2 km/h 3.2 km/h 97 % 0.0 mm
09:51 18.0 °C 18.0 °C 1018.2 hPa SE 3.2 km/h 3.2 km/h 96 % 0.0 mm
09:56 18.0 °C 18.0 °C 1018.2 hPa SE 3.2 km/h 3.2 km/h 96 % 0.0 mm
10:01 18.0 °C 17.0 °C 1018.2 hPa SE 3.2 km/h 3.2 km/h 95 % 0.0 mm
10:06 18.1 °C 17.0 °C 1018.2 hPa Calm   3.2 km/h 95 % 0.0 mm
10:11 18.1 °C 17.0 °C 1018.2 hPa Calm     95 % 0.0 mm
10:16 18.1 °C 17.0 °C 1018.2 hPa Calm     95 % 0.0 mm
10:21 18.6 °C 18.0 °C 1018.2 hPa Calm     94 % 0.0 mm
10:27 18.9 °C 18.0 °C 1018.2 hPa Calm     94 % 0.0 mm
10:32 19.3 °C 18.0 °C 1018.2 hPa South 11.1 km/h 11.1 km/h 93 % 0.0 mm
10:37 19.3 °C 18.0 °C 1018.2 hPa South 11.1 km/h 11.1 km/h 92 % 0.0 mm
10:42 19.4 °C 18.0 °C 1018.2 hPa South 11.1 km/h 11.1 km/h 91 % 0.0 mm
10:47 19.7 °C 18.0 °C 1016.8 hPa South 11.1 km/h 11.1 km/h 91 % 0.0 mm
10:52 19.9 °C 18.0 °C 1016.8 hPa South 11.1 km/h 11.1 km/h 90 % 0.0 mm
10:57 20.6 °C 19.0 °C 1016.8 hPa South 11.1 km/h 11.1 km/h 90 % 0.0 mm
11:02 20.7 °C 18.0 °C 1016.8 hPa South 11.1 km/h 11.1 km/h 85 % 0.0 mm
11:07 20.7 °C 18.0 °C 1016.8 hPa South 11.1 km/h 11.1 km/h 86 % 0.0 mm
11:12 20.8 °C 18.0 °C 1016.8 hPa South 11.1 km/h 11.1 km/h 85 % 0.0 mm
11:17 20.9 °C 18.0 °C 1016.8 hPa South 11.1 km/h 11.1 km/h 84 % 0.0 mm
11:22 21.1 °C 18.0 °C 1016.8 hPa South 11.1 km/h 11.1 km/h 82 % 0.0 mm
11:27 21.1 °C 18.0 °C 1016.8 hPa South 11.1 km/h 11.1 km/h 81 % 0.0 mm
11:32 21.3 °C 18.0 °C 1016.8 hPa South 11.1 km/h 11.1 km/h 83 % 0.0 mm
11:37 21.6 °C 19.0 °C 1016.8 hPa South 11.1 km/h 11.1 km/h 82 % 0.0 mm
11:42 21.7 °C 18.0 °C 1016.8 hPa South 11.1 km/h 11.1 km/h 81 % 0.0 mm
11:47 21.5 °C 18.0 °C 1016.8 hPa South 11.1 km/h 11.1 km/h 80 % 0.0 mm
11:49 21.5 °C 18.0 °C 1016.8 hPa South 11.1 km/h 11.1 km/h 80 % 0.0 mm
11:54 21.6 °C 18.0 °C 1016.8 hPa South 11.1 km/h 11.1 km/h 80 % 0.0 mm
11:59 22.0 °C 18.0 °C 1016.8 hPa South 11.1 km/h 11.1 km/h 79 % 0.0 mm
12:04 22.6 °C 19.0 °C 1016.8 hPa South 11.1 km/h 11.1 km/h 80 % 0.0 mm
12:09 22.8 °C 19.0 °C 1016.8 hPa South 11.1 km/h 11.1 km/h 79 % 0.0 mm
12:14 23.0 °C 19.0 °C 1016.8 hPa South 11.1 km/h 11.1 km/h 77 % 0.0 mm
12:19 23.1 °C 19.0 °C 1016.8 hPa South 11.1 km/h 11.1 km/h 76 % 0.0 mm
12:24 23.2 °C 19.0 °C 1016.8 hPa South 11.1 km/h 11.1 km/h 74 % 0.0 mm
12:29 23.4 °C 19.0 °C 1016.8 hPa South 11.1 km/h 11.1 km/h 74 % 0.0 mm
12:34 23.0 °C 18.0 °C 1016.8 hPa South 11.1 km/h 11.1 km/h 73 % 0.0 mm
12:39 22.9 °C 18.0 °C 1016.8 hPa South 11.1 km/h 11.1 km/h 74 % 0.0 mm
12:44 22.8 °C 18.0 °C 1016.8 hPa South 11.1 km/h 11.1 km/h 73 % 0.0 mm
12:49 23.4 °C 19.0 °C 1016.8 hPa South 11.1 km/h 11.1 km/h 74 % 0.0 mm
12:54 23.2 °C 18.0 °C 1016.8 hPa South 11.1 km/h 11.1 km/h 73 % 0.0 mm
12:59 23.1 °C 18.0 °C 1016.8 hPa South 11.1 km/h 11.1 km/h 74 % 0.0 mm
13:05 22.9 °C 18.0 °C 1016.8 hPa South 11.1 km/h 11.1 km/h 73 % 0.0 mm
13:10 22.8 °C 18.0 °C 1016.8 hPa South 11.1 km/h 11.1 km/h 74 % 0.0 mm
13:15 23.1 °C 18.0 °C 1016.1 hPa South 11.1 km/h 11.1 km/h 74 % 0.0 mm
13:20 23.3 °C 18.0 °C 1016.1 hPa South 11.1 km/h 11.1 km/h 73 % 0.0 mm
13:25 23.3 °C 18.0 °C 1016.1 hPa South 11.1 km/h 11.1 km/h 72 % 0.0 mm
13:30 23.3 °C 18.0 °C 1016.1 hPa South 11.1 km/h 11.1 km/h 72 % 0.0 mm
13:35 24.0 °C 19.0 °C 1016.1 hPa South 11.1 km/h 11.1 km/h 71 % 0.0 mm
13:40 24.4 °C 18.0 °C 1016.1 hPa South 11.1 km/h 11.1 km/h 69 % 0.0 mm
13:45 24.4 °C 18.0 °C 1016.1 hPa South 11.1 km/h 11.1 km/h 68 % 0.0 mm
13:50 24.1 °C 18.0 °C 1016.1 hPa South 11.1 km/h 11.1 km/h 68 % 0.0 mm
13:55 23.8 °C 18.0 °C 1016.1 hPa South 11.1 km/h 11.1 km/h 69 % 0.0 mm
14:00 23.7 °C 18.0 °C 1016.1 hPa South 11.1 km/h 11.1 km/h 69 % 0.0 mm
14:05 24.0 °C 18.0 °C 1016.1 hPa South 11.1 km/h 11.1 km/h 69 % 0.0 mm
14:06 24.1 °C 18.0 °C 1016.1 hPa South 11.1 km/h 11.1 km/h 69 % 0.0 mm
14:11 23.7 °C 18.0 °C 1016.1 hPa South 11.1 km/h 11.1 km/h 69 % 0.0 mm
14:16 23.8 °C 18.0 °C 1016.1 hPa South 11.1 km/h 11.1 km/h 69 % 0.0 mm
14:21 23.6 °C 18.0 °C 1016.1 hPa South 11.1 km/h 11.1 km/h 69 % 0.0 mm
14:26 23.4 °C 17.0 °C 1016.1 hPa SSW 12.2 km/h 12.2 km/h 69 % 0.0 mm
14:31 23.5 °C 18.0 °C 1015.1 hPa SSW 12.2 km/h 12.2 km/h 70 % 0.0 mm
14:36 23.7 °C 18.0 °C 1015.1 hPa SSW 12.2 km/h 12.2 km/h 70 % 0.0 mm
14:41 24.0 °C 18.0 °C 1015.1 hPa SSW 12.2 km/h 12.2 km/h 69 % 0.0 mm
14:46 24.0 °C 18.0 °C 1016.1 hPa SW 6.9 km/h 12.2 km/h 69 % 0.0 mm
14:51 23.7 °C 18.0 °C 1016.1 hPa SW 17.2 km/h 17.2 km/h 68 % 0.0 mm
14:56 23.3 °C 17.0 °C 1016.1 hPa SW 10.5 km/h 17.2 km/h 67 % 0.0 mm
15:01 22.9 °C 17.0 °C 1016.1 hPa SSW 11.6 km/h 17.2 km/h 68 % 0.0 mm
15:06 22.7 °C 17.0 °C 1016.1 hPa SSW 11.6 km/h 11.6 km/h 71 % 0.0 mm
15:11 22.3 °C 18.0 °C 1016.1 hPa SW 11.9 km/h 11.9 km/h 75 % 0.0 mm
15:16 22.1 °C 18.0 °C 1016.1 hPa SSW 10.1 km/h 11.9 km/h 76 % 0.0 mm
15:21 22.0 °C 18.0 °C 1016.1 hPa SSW 10.1 km/h 11.9 km/h 77 % 0.0 mm
15:26 22.0 °C 18.0 °C 1016.1 hPa SSW 10.1 km/h 10.1 km/h 78 % 0.0 mm
15:31 22.0 °C 18.0 °C 1016.8 hPa SSW 10.1 km/h 10.1 km/h 79 % 0.0 mm
15:36 21.8 °C 18.0 °C 1016.8 hPa SSW 10.1 km/h 10.1 km/h 79 % 0.0 mm
15:41 21.5 °C 18.0 °C 1016.8 hPa SSW 10.1 km/h 10.1 km/h 80 % 0.0 mm
15:46 21.5 °C 18.0 °C 1016.8 hPa West 7.9 km/h 14.0 km/h 80 % 0.0 mm
15:51 21.4 °C 18.0 °C 1016.8 hPa West 7.9 km/h 14.0 km/h 80 % 0.0 mm
15:57 21.3 °C 18.0 °C 1016.8 hPa West 12.6 km/h 12.6 km/h 81 % 0.0 mm
16:02 21.3 °C 18.0 °C 1016.1 hPa WSW 11.6 km/h 13.0 km/h 81 % 0.0 mm
16:07 21.3 °C 18.0 °C 1016.1 hPa WSW 17.2 km/h 17.2 km/h 81 % 0.0 mm
16:12 21.2 °C 18.0 °C 1016.1 hPa WSW 12.6 km/h 17.7 km/h 81 % 0.0 mm
16:17 21.2 °C 18.0 °C 1016.8 hPa West 11.1 km/h 17.7 km/h 83 % 0.0 mm
16:22 21.2 °C 18.0 °C 1016.8 hPa WSW 13.0 km/h 17.7 km/h 82 % 0.0 mm
16:27 21.2 °C 18.0 °C 1016.8 hPa WSW 12.2 km/h 17.2 km/h 83 % 0.0 mm
16:32 21.2 °C 19.0 °C 1016.1 hPa WSW 12.2 km/h 12.2 km/h 84 % 0.0 mm
16:37 21.2 °C 18.0 °C 1016.1 hPa WSW 12.2 km/h 12.2 km/h 83 % 0.0 mm
16:42 21.1 °C 18.0 °C 1016.1 hPa WSW 12.2 km/h 12.2 km/h 84 % 0.0 mm
16:47 21.0 °C 18.0 °C 1016.8 hPa WSW 12.2 km/h 12.2 km/h 84 % 0.0 mm
16:52 20.8 °C 18.0 °C 1016.8 hPa WSW 12.2 km/h 12.2 km/h 86 % 0.0 mm
16:57 20.6 °C 18.0 °C 1016.8 hPa WSW 7.9 km/h 7.9 km/h 86 % 0.0 mm
17:02 20.6 °C 18.0 °C 1016.8 hPa WSW 6.9 km/h 7.9 km/h 86 % 0.0 mm
17:07 20.6 °C 18.0 °C 1016.8 hPa WSW 6.9 km/h 7.9 km/h 86 % 0.0 mm
17:12 20.5 °C 19.0 °C 1016.8 hPa WSW 6.9 km/h 6.9 km/h 87 % 0.0 mm
17:17 20.5 °C 19.0 °C 1016.8 hPa WSW 5.0 km/h 6.9 km/h 87 % 0.0 mm
17:22 20.5 °C 18.0 °C 1016.8 hPa West 8.7 km/h 14.0 km/h 86 % 0.0 mm
17:27 20.4 °C 18.0 °C 1016.8 hPa West 8.7 km/h 14.0 km/h 86 % 0.0 mm
17:32 20.5 °C 18.0 °C 1016.8 hPa WSW 9.0 km/h 14.0 km/h 86 % 0.0 mm
17:37 20.6 °C 18.0 °C 1016.8 hPa West 4.7 km/h 10.5 km/h 86 % 0.0 mm
17:42 20.5 °C 18.0 °C 1016.8 hPa WSW 9.0 km/h 9.0 km/h 86 % 0.0 mm
17:48 20.3 °C 18.0 °C 1016.8 hPa WNW 6.9 km/h 9.0 km/h 86 % 0.0 mm
17:53 20.2 °C 18.0 °C 1016.8 hPa WNW 6.9 km/h 9.0 km/h 86 % 0.0 mm
17:58 20.1 °C 18.0 °C 1016.8 hPa West 1.4 km/h 6.9 km/h 86 % 0.0 mm
18:03 20.2 °C 18.0 °C 1016.8 hPa West 5.0 km/h 6.9 km/h 86 % 0.0 mm
18:08 20.1 °C 18.0 °C 1016.8 hPa West 9.3 km/h 9.3 km/h 86 % 0.0 mm
18:13 20.1 °C 18.0 °C 1016.8 hPa West 9.7 km/h 10.8 km/h 86 % 0.0 mm
18:18 20.0 °C 18.0 °C 1016.8 hPa WSW 9.3 km/h 11.9 km/h 87 % 0.0 mm
18:23 19.9 °C 18.0 °C 1016.8 hPa West 9.3 km/h 11.9 km/h 87 % 0.0 mm
18:28 19.8 °C 18.0 °C 1016.8 hPa WSW 5.8 km/h 9.3 km/h 87 % 0.0 mm
18:33 19.7 °C 18.0 °C 1016.8 hPa West 6.1 km/h 9.3 km/h 87 % 0.0 mm
18:38 19.6 °C 18.0 °C 1016.8 hPa Calm   6.9 km/h 87 % 0.0 mm
18:43 19.5 °C 18.0 °C 1016.8 hPa Calm   6.1 km/h 87 % 0.0 mm
18:48 19.5 °C 18.0 °C 1016.1 hPa Calm     88 % 0.0 mm
18:54 19.3 °C 17.0 °C 1016.1 hPa Calm   4.3 km/h 88 % 0.0 mm
18:59 19.2 °C 17.0 °C 1016.1 hPa WSW 4.3 km/h 4.3 km/h 88 % 0.0 mm
19:04 19.1 °C 17.0 °C 1016.8 hPa WSW 4.3 km/h 4.3 km/h 88 % 0.0 mm
19:09 19.0 °C 17.0 °C 1016.8 hPa Calm   4.3 km/h 89 % 0.0 mm
19:14 18.8 °C 17.0 °C 1016.8 hPa Calm   4.3 km/h 89 % 0.0 mm
19:19 18.8 °C 17.0 °C 1016.1 hPa Calm     89 % 0.0 mm
19:24 18.5 °C 17.0 °C 1016.1 hPa Calm     90 % 0.0 mm
19:29 18.4 °C 17.0 °C 1016.1 hPa Calm     90 % 0.0 mm
19:34 18.4 °C 17.0 °C 1016.8 hPa Calm   5.5 km/h 90 % 0.0 mm
19:39 18.3 °C 17.0 °C 1016.8 hPa West 6.9 km/h 6.9 km/h 91 % 0.0 mm
19:44 18.3 °C 17.0 °C 1016.8 hPa West 5.0 km/h 7.6 km/h 91 % 0.0 mm
19:49 18.3 °C 17.0 °C 1016.8 hPa West 5.0 km/h 7.6 km/h 91 % 0.0 mm
19:54 18.3 °C 17.0 °C 1016.8 hPa West 4.0 km/h 6.4 km/h 91 % 0.0 mm
19:59 18.4 °C 17.0 °C 1016.8 hPa West 9.3 km/h 9.3 km/h 92 % 0.0 mm
20:04 18.5 °C 17.0 °C 1016.8 hPa West 9.3 km/h 10.5 km/h 91 % 0.0 mm
20:10 18.5 °C 17.0 °C 1016.8 hPa West 6.4 km/h 10.5 km/h 91 % 0.0 mm
20:15 18.5 °C 17.0 °C 1016.8 hPa WNW 4.3 km/h 8.7 km/h 91 % 0.0 mm
20:20 18.5 °C 17.0 °C 1016.8 hPa West 3.2 km/h 9.3 km/h 91 % 0.0 mm
20:25 18.4 °C 17.0 °C 1016.8 hPa West 6.4 km/h 10.8 km/h 91 % 0.0 mm
20:30 18.4 °C 17.0 °C 1018.2 hPa West 5.5 km/h 10.8 km/h 91 % 0.0 mm
20:35 18.3 °C 17.0 °C 1018.2 hPa West 5.5 km/h 6.4 km/h 91 % 0.0 mm
20:40 18.2 °C 17.0 °C 1018.2 hPa West 4.0 km/h 5.5 km/h 91 % 0.0 mm
20:45 18.2 °C 17.0 °C 1016.8 hPa West 4.0 km/h 5.5 km/h 91 % 0.0 mm
20:50 18.2 °C 17.0 °C 1016.8 hPa West 4.0 km/h 5.5 km/h 91 % 0.0 mm
20:55 18.0 °C 16.0 °C 1016.8 hPa WSW 9.7 km/h 9.7 km/h 90 % 0.0 mm
21:00 17.9 °C 16.0 °C 1016.8 hPa West 9.3 km/h 11.1 km/h 89 % 0.0 mm
21:05 17.8 °C 16.0 °C 1016.8 hPa West 8.7 km/h 11.1 km/h 90 % 0.0 mm
21:10 17.7 °C 16.0 °C 1016.8 hPa West 2.6 km/h 9.3 km/h 90 % 0.0 mm
21:15 17.5 °C 16.0 °C 1016.8 hPa West 2.6 km/h 8.7 km/h 91 % 0.0 mm
21:20 17.5 °C 16.0 °C 1016.8 hPa West 2.6 km/h 2.6 km/h 91 % 0.0 mm
21:25 17.3 °C 16.0 °C 1016.8 hPa West 2.6 km/h 2.6 km/h 92 % 0.0 mm
21:30 17.3 °C 16.0 °C 1016.8 hPa West 2.6 km/h 2.6 km/h 92 % 0.0 mm
21:35 17.2 °C 16.0 °C 1016.8 hPa West 2.6 km/h 2.6 km/h 92 % 0.0 mm
21:40 17.2 °C 16.0 °C 1016.8 hPa West 2.6 km/h 2.6 km/h 93 % 0.0 mm
21:45 17.0 °C 16.0 °C 1016.8 hPa West 2.6 km/h 2.6 km/h 93 % 0.0 mm
21:50 17.0 °C 16.0 °C 1016.8 hPa West 2.6 km/h 2.6 km/h 93 % 0.0 mm
21:55 16.8 °C 15.0 °C 1016.8 hPa West 2.6 km/h 2.6 km/h 92 % 0.0 mm
22:00 16.7 °C 15.0 °C 1016.8 hPa WSW 11.9 km/h 13.0 km/h 92 % 0.0 mm
22:05 16.6 °C 15.0 °C 1016.8 hPa WSW 5.5 km/h 13.0 km/h 92 % 0.0 mm
22:10 16.6 °C 15.0 °C 1016.8 hPa WSW 6.9 km/h 6.9 km/h 92 % 0.0 mm
22:16 16.4 °C 15.0 °C 1016.8 hPa WSW 6.9 km/h 6.9 km/h 92 % 0.0 mm
22:21 16.3 °C 15.0 °C 1016.8 hPa WSW 6.9 km/h 6.9 km/h 92 % 0.0 mm
22:26 16.3 °C 15.0 °C 1016.8 hPa WSW 2.6 km/h 6.9 km/h 92 % 0.0 mm
22:31 16.3 °C 15.0 °C 1016.1 hPa WSW 4.7 km/h 4.7 km/h 93 % 0.0 mm
22:36 16.2 °C 15.0 °C 1016.1 hPa Calm   4.7 km/h 93 % 0.0 mm
22:41 16.2 °C 15.0 °C 1016.1 hPa Calm   4.7 km/h 93 % 0.0 mm
22:46 16.1 °C 15.0 °C 1016.8 hPa Calm     93 % 0.0 mm
22:51 16.1 °C 15.0 °C 1016.8 hPa Calm     93 % 0.0 mm
22:56 16.0 °C 15.0 °C 1016.8 hPa Calm   1.4 km/h 93 % 0.0 mm
23:01 15.9 °C 15.0 °C 1016.8 hPa West 6.1 km/h 6.1 km/h 93 % 0.0 mm
23:06 15.9 °C 15.0 °C 1016.8 hPa West 9.0 km/h 9.0 km/h 93 % 0.0 mm
23:11 15.9 °C 15.0 °C 1016.8 hPa WSW 5.0 km/h 9.0 km/h 93 % 0.0 mm
23:16 15.9 °C 15.0 °C 1016.1 hPa West 10.5 km/h 10.5 km/h 93 % 0.0 mm
23:21 15.8 °C 15.0 °C 1016.1 hPa SW 5.5 km/h 10.5 km/h 93 % 0.0 mm
23:26 15.8 °C 14.0 °C 1016.1 hPa SW 5.5 km/h 10.5 km/h 92 % 0.0 mm
23:31 15.8 °C 14.0 °C 1016.1 hPa SW 5.5 km/h 5.5 km/h 92 % 0.0 mm
23:36 15.8 °C 14.0 °C 1016.1 hPa SW 5.5 km/h 5.5 km/h 92 % 0.0 mm
23:41 15.7 °C 14.0 °C 1016.1 hPa West 8.7 km/h 10.5 km/h 92 % 0.0 mm
23:46 15.7 °C 14.0 °C 1016.8 hPa West 9.7 km/h 11.6 km/h 92 % 0.0 mm
23:51 15.7 °C 15.0 °C 1016.8 hPa WSW 6.1 km/h 11.6 km/h 93 % 0.0 mm
23:56 15.7 °C 15.0 °C 1016.8 hPa WSW 6.9 km/h 13.0 km/h 93 % 0.0 mm
Le Gheer Warneton
Courtoisie de Weather Underground - 2.25 mb

Mise a jour : 18/12/2017 17:45:12
Généré par Cumulus 1.9.4 (1099)